createdAt,value
2022-08-26T00:01:30.730Z,15.27
2022-08-26T00:03:58.606Z,20.52
2022-08-26T00:06:26.054Z,16.52
2022-08-26T00:08:53.275Z,16.25
2022-08-26T00:11:26.738Z,16.30
2022-08-26T00:13:54.976Z,23.48
2022-08-26T00:16:23.481Z,17.90
2022-08-26T00:18:50.227Z,18.00
2022-08-26T00:21:17.466Z,20.60
2022-08-26T00:23:44.362Z,17.92
2022-08-26T00:26:11.236Z,23.88
2022-08-26T00:28:38.101Z,25.00
2022-08-26T00:31:07.096Z,24.52
2022-08-26T00:33:34.076Z,27.98
2022-08-26T00:36:01.635Z,26.15
2022-08-26T00:38:29.222Z,30.58
2022-08-26T00:40:57.380Z,28.85
2022-08-26T00:43:26.062Z,29.27
2022-08-26T00:46:00.840Z,32.90
2022-08-26T00:48:31.958Z,33.30
2022-08-26T00:51:04.476Z,33.28
2022-08-26T00:53:36.774Z,33.67
2022-08-26T00:56:09.341Z,35.25
2022-08-26T00:58:43.025Z,35.80
2022-08-26T01:01:11.571Z,41.30
2022-08-26T01:03:39.138Z,41.28
2022-08-26T01:06:11.459Z,39.70
2022-08-26T01:08:40.477Z,38.35
2022-08-26T01:11:08.782Z,41.30
2022-08-26T01:13:37.277Z,40.72
2022-08-26T01:16:06.282Z,41.70
2022-08-26T01:18:33.417Z,42.95
2022-08-26T01:21:25.073Z,47.90
2022-08-26T01:23:57.762Z,40.05
2022-08-26T01:26:29.643Z,46.17
2022-08-26T01:28:58.717Z,42.67
2022-08-26T01:31:29.976Z,39.88
2022-08-26T01:34:06.614Z,48.25
2022-08-26T01:36:37.796Z,44.72
2022-08-26T01:39:07.343Z,43.40
2022-08-26T01:41:36.441Z,44.72
2022-08-26T01:44:06.528Z,41.78
2022-08-26T01:46:37.026Z,42.03
2022-08-26T01:49:06.720Z,43.88
2022-08-26T01:51:37.602Z,40.63
2022-08-26T01:54:07.323Z,43.42
2022-08-26T01:56:39.278Z,38.67
2022-08-26T01:59:10.891Z,43.75
2022-08-26T02:01:39.204Z,49.00
2022-08-26T02:04:30.792Z,43.10
2022-08-26T02:06:58.125Z,44.60
2022-08-26T02:09:26.414Z,44.45
2022-08-26T02:11:54.005Z,40.40
2022-08-26T02:14:26.908Z,43.15
2022-08-26T02:16:56.011Z,43.72
2022-08-26T02:19:30.568Z,41.88
2022-08-26T02:22:01.319Z,41.13
2022-08-26T02:24:46.067Z,39.17
2022-08-26T02:27:14.776Z,42.35
2022-08-26T02:29:44.766Z,36.35
2022-08-26T02:32:11.495Z,40.80
2022-08-26T02:34:38.023Z,40.97
2022-08-26T02:37:10.025Z,36.00
2022-08-26T02:39:39.082Z,40.67
2022-08-26T02:42:06.158Z,40.60
2022-08-26T02:44:33.553Z,41.42
2022-08-26T02:47:00.322Z,41.65
2022-08-26T02:49:27.873Z,39.75
2022-08-26T02:51:54.580Z,39.00
2022-08-26T02:54:21.605Z,42.00
2022-08-26T02:56:48.873Z,36.70
2022-08-26T02:59:15.496Z,41.55
2022-08-26T03:01:42.786Z,40.47
2022-08-26T03:04:12.162Z,40.00
2022-08-26T03:06:38.983Z,42.85
2022-08-26T03:09:07.827Z,37.97
2022-08-26T03:11:36.659Z,39.95
2022-08-26T03:14:04.344Z,37.75
2022-08-26T03:16:35.920Z,38.47
2022-08-26T03:19:05.402Z,39.40
2022-08-26T03:21:33.012Z,43.80
2022-08-26T03:24:00.290Z,42.00
2022-08-26T03:26:27.927Z,40.13
2022-08-26T03:29:14.178Z,43.30
2022-08-26T03:31:41.239Z,39.60
2022-08-26T03:34:09.595Z,34.80
2022-08-26T03:36:38.699Z,44.88
2022-08-26T03:39:06.301Z,41.78
2022-08-26T03:41:35.822Z,40.13
2022-08-26T03:44:04.270Z,37.72
2022-08-26T03:46:32.280Z,40.90
2022-08-26T03:49:00.396Z,38.40
2022-08-26T03:51:28.845Z,39.63
2022-08-26T03:53:55.905Z,35.30
2022-08-26T03:56:23.867Z,35.00
2022-08-26T03:58:51.007Z,38.78
2022-08-26T04:01:17.712Z,35.70
2022-08-26T04:04:00.069Z,37.75
2022-08-26T04:06:31.311Z,38.45
2022-08-26T04:09:00.757Z,34.92
2022-08-26T04:11:30.397Z,34.05
2022-08-26T04:14:01.852Z,30.35
2022-08-26T04:16:29.486Z,30.52
2022-08-26T04:18:57.424Z,28.13
2022-08-26T04:21:25.443Z,32.80
2022-08-26T04:23:54.237Z,29.17
2022-08-26T04:26:23.361Z,26.55
2022-08-26T04:28:52.254Z,30.38
2022-08-26T04:31:19.689Z,25.92
2022-08-26T04:33:49.881Z,28.42
2022-08-26T04:36:17.813Z,27.98
2022-08-26T04:38:47.413Z,27.77
2022-08-26T04:41:15.285Z,27.05
2022-08-26T04:43:45.544Z,24.67
2022-08-26T04:46:13.878Z,22.60
2022-08-26T04:48:42.020Z,26.35
2022-08-26T04:51:09.921Z,26.90
2022-08-26T04:53:37.093Z,22.00
2022-08-26T04:56:04.680Z,24.90
2022-08-26T04:58:32.011Z,23.33
2022-08-26T05:00:58.635Z,25.48
2022-08-26T05:03:30.281Z,24.58
2022-08-26T05:05:58.372Z,21.98
2022-08-26T05:08:25.339Z,23.15
2022-08-26T05:10:55.886Z,20.27
2022-08-26T05:13:25.293Z,22.60
2022-08-26T05:15:52.480Z,24.23
2022-08-26T05:18:23.114Z,21.67
2022-08-26T05:20:53.995Z,20.80
2022-08-26T05:23:22.872Z,25.02
2022-08-26T05:26:01.785Z,18.88
2022-08-26T05:28:31.923Z,21.75
2022-08-26T05:30:58.788Z,23.20
2022-08-26T05:33:25.416Z,21.80
2022-08-26T05:35:52.294Z,20.95
2022-08-26T05:38:21.984Z,20.30
2022-08-26T05:40:52.734Z,17.60
2022-08-26T05:43:20.696Z,19.17
2022-08-26T05:45:49.442Z,21.38
2022-08-26T05:48:22.873Z,21.67
2022-08-26T05:50:53.240Z,24.20
2022-08-26T05:53:21.398Z,16.88
2022-08-26T05:55:52.957Z,24.92
2022-08-26T05:58:21.314Z,23.58
2022-08-26T06:01:07.502Z,18.52
2022-08-26T06:03:36.084Z,15.82
2022-08-26T06:06:07.395Z,19.40
2022-08-26T06:08:35.278Z,17.15
2022-08-26T06:11:05.585Z,18.92
2022-08-26T06:13:33.493Z,16.08
2022-08-26T06:16:05.319Z,15.93
2022-08-26T06:18:36.311Z,18.00
2022-08-26T06:21:27.163Z,16.65
2022-08-26T06:24:15.374Z,13.88
2022-08-26T06:26:46.889Z,21.35
2022-08-26T06:29:24.282Z,18.92
2022-08-26T06:31:53.077Z,15.02
2022-08-26T06:34:19.923Z,16.65
2022-08-26T06:36:47.717Z,17.85
2022-08-26T06:39:16.500Z,14.27
2022-08-26T06:41:44.860Z,14.57
2022-08-26T06:44:17.309Z,17.70
2022-08-26T06:46:44.221Z,19.17
2022-08-26T06:49:12.352Z,18.60
2022-08-26T06:51:40.619Z,19.85
2022-08-26T06:54:08.034Z,17.05
2022-08-26T06:56:43.030Z,15.70
2022-08-26T06:59:12.560Z,13.25
2022-08-26T07:01:44.609Z,15.55
2022-08-26T07:04:15.556Z,16.65
2022-08-26T07:06:47.118Z,12.93
2022-08-26T07:09:13.665Z,17.55
2022-08-26T07:11:41.457Z,14.45
2022-08-26T07:14:08.976Z,14.52
2022-08-26T07:16:35.925Z,15.90
2022-08-26T07:19:10.637Z,13.85
2022-08-26T07:21:41.525Z,11.65
2022-08-26T07:24:09.082Z,18.15
2022-08-26T07:26:38.455Z,14.18
2022-08-26T07:29:06.771Z,18.17
2022-08-26T07:31:39.457Z,11.10
2022-08-26T07:36:36.453Z,12.68
2022-08-26T07:39:03.416Z,15.35
2022-08-26T07:44:01.516Z,11.43
2022-08-26T07:46:30.338Z,20.20
2022-08-26T07:48:58.191Z,14.27
2022-08-26T07:51:25.519Z,13.07
2022-08-26T07:53:53.180Z,14.15
2022-08-26T07:56:22.977Z,11.88
2022-08-26T07:58:51.595Z,13.18
2022-08-26T08:01:24.143Z,12.10
2022-08-26T08:03:53.274Z,12.23
2022-08-26T08:06:22.457Z,15.73
2022-08-26T08:08:53.690Z,19.40
2022-08-26T08:11:23.084Z,13.95
2022-08-26T08:13:55.960Z,11.75
2022-08-26T08:16:32.387Z,9.13
2022-08-26T08:19:00.222Z,10.70
2022-08-26T08:21:27.772Z,13.82
2022-08-26T08:23:56.593Z,14.85
2022-08-26T08:26:24.974Z,17.08
2022-08-26T08:28:55.544Z,12.10
2022-08-26T08:31:55.923Z,12.77
2022-08-26T08:34:15.271Z,14.85
2022-08-26T08:36:41.946Z,12.00
2022-08-26T08:39:09.306Z,11.88
2022-08-26T08:42:04.097Z,10.90
2022-08-26T08:44:30.997Z,12.38
2022-08-26T08:47:28.682Z,8.68
2022-08-26T08:50:00.236Z,9.48
2022-08-26T08:52:37.803Z,9.63
2022-08-26T08:55:11.088Z,8.85
2022-08-26T08:57:55.782Z,13.05
2022-08-26T09:00:39.834Z,15.95
2022-08-26T09:03:32.354Z,12.27
2022-08-26T09:06:01.589Z,13.93
2022-08-26T09:08:35.066Z,10.13
2022-08-26T09:11:03.617Z,10.30
2022-08-26T09:13:31.822Z,9.70
2022-08-26T09:16:03.483Z,10.18
2022-08-26T09:18:45.998Z,13.25
2022-08-26T09:21:15.495Z,7.75
2022-08-26T09:23:49.174Z,9.00
2022-08-26T09:26:30.714Z,12.52
2022-08-26T09:29:00.649Z,8.43
2022-08-26T09:31:35.740Z,10.95
2022-08-26T09:34:24.259Z,6.95
2022-08-26T09:36:54.741Z,7.50
2022-08-26T09:39:28.251Z,8.13
2022-08-26T09:42:03.576Z,8.50
2022-08-26T09:44:31.214Z,9.68
2022-08-26T09:47:08.672Z,7.30
2022-08-26T09:49:38.737Z,6.38
2022-08-26T09:52:17.589Z,10.40
2022-08-26T09:54:57.206Z,9.10
2022-08-26T09:57:28.979Z,20.90
2022-08-26T09:59:56.141Z,15.20
2022-08-26T10:02:31.886Z,8.02
2022-08-26T10:07:44.653Z,8.45
2022-08-26T10:10:17.152Z,12.00
2022-08-26T10:13:17.597Z,10.35
2022-08-26T10:15:55.607Z,8.93
2022-08-26T10:18:35.445Z,9.80
2022-08-26T10:21:18.147Z,7.38
2022-08-26T10:23:51.681Z,6.82
2022-08-26T10:26:26.610Z,7.85
2022-08-26T10:29:15.594Z,8.88
2022-08-26T10:31:52.005Z,6.80
2022-08-26T10:34:19.057Z,8.68
2022-08-26T10:37:13.678Z,7.88
2022-08-26T10:40:07.590Z,8.27
2022-08-26T10:42:35.351Z,7.70
2022-08-26T10:45:28.426Z,7.75
2022-08-26T10:48:53.561Z,8.00
2022-08-26T10:51:26.932Z,5.38
2022-08-26T10:54:06.648Z,7.65
2022-08-26T10:56:44.624Z,7.70
2022-08-26T10:59:36.831Z,5.95
2022-08-26T11:02:14.690Z,7.57
2022-08-26T11:04:48.746Z,8.63
2022-08-26T11:07:40.962Z,12.35
2022-08-26T11:10:16.649Z,7.18
2022-08-26T11:15:24.603Z,5.93
2022-08-26T11:20:29.950Z,7.78
2022-08-26T11:23:17.061Z,7.10
2022-08-26T11:25:55.849Z,5.07
2022-08-26T11:28:44.525Z,4.75
2022-08-26T11:31:32.579Z,5.88
2022-08-26T11:34:01.183Z,11.85
2022-08-26T11:36:47.655Z,8.90
2022-08-26T11:39:48.531Z,6.78
2022-08-26T11:42:20.487Z,8.85
2022-08-26T11:44:49.665Z,10.23
2022-08-26T11:47:26.705Z,5.72
2022-08-26T11:50:28.690Z,6.03
2022-08-26T11:53:06.165Z,5.03
2022-08-26T11:55:36.456Z,8.30
2022-08-26T11:58:05.079Z,7.50
2022-08-26T12:00:57.946Z,6.60
2022-08-26T12:03:44.798Z,8.93
2022-08-26T12:09:01.377Z,12.90
2022-08-26T12:11:39.001Z,8.10
2022-08-26T12:14:16.692Z,6.35
2022-08-26T12:16:43.479Z,5.78
2022-08-26T12:19:32.560Z,8.73
2022-08-26T12:22:25.688Z,8.70
2022-08-26T12:25:08.420Z,5.72
2022-08-26T12:27:47.191Z,5.13
2022-08-26T12:30:24.745Z,7.50
2022-08-26T12:33:10.832Z,6.85
2022-08-26T12:35:52.848Z,7.07
2022-08-26T12:38:23.912Z,6.63
2022-08-26T12:40:50.642Z,2.72
2022-08-26T12:43:42.337Z,8.20
2022-08-26T12:46:26.800Z,9.48
2022-08-26T12:48:53.568Z,6.90
2022-08-26T12:51:26.504Z,5.40
2022-08-26T12:53:53.939Z,4.55
2022-08-26T12:56:33.984Z,8.75
2022-08-26T12:59:06.031Z,10.02
2022-08-26T13:01:42.765Z,10.20
2022-08-26T13:04:32.017Z,7.78
2022-08-26T13:07:21.466Z,11.95
2022-08-26T13:09:49.174Z,10.38
2022-08-26T13:12:28.647Z,7.60
2022-08-26T13:14:56.390Z,9.55
2022-08-26T13:17:22.970Z,9.00
2022-08-26T13:19:49.519Z,5.82
2022-08-26T13:22:20.230Z,6.82
2022-08-26T13:24:46.838Z,6.80
2022-08-26T13:27:14.629Z,9.07
2022-08-26T13:29:41.700Z,7.63
2022-08-26T13:32:08.950Z,9.88
2022-08-26T13:34:37.015Z,8.88
2022-08-26T13:37:04.615Z,10.30
2022-08-26T13:39:31.181Z,6.75
2022-08-26T13:41:57.824Z,7.55
2022-08-26T13:44:24.383Z,6.25
2022-08-26T13:46:51.231Z,10.18
2022-08-26T13:49:17.768Z,8.77
2022-08-26T13:51:44.397Z,8.05
2022-08-26T13:54:10.985Z,17.70
2022-08-26T13:56:37.640Z,6.68
2022-08-26T13:59:05.549Z,14.38
2022-08-26T14:01:33.158Z,13.27
2022-08-26T14:03:59.936Z,6.07
2022-08-26T14:06:26.746Z,10.70
2022-08-26T14:08:53.344Z,9.13
2022-08-26T14:11:21.280Z,12.27
2022-08-26T14:13:47.855Z,8.02
2022-08-26T14:16:59.154Z,6.93
2022-08-26T14:19:27.089Z,5.85
2022-08-26T14:21:53.775Z,5.55
2022-08-26T14:24:20.291Z,8.15
2022-08-26T14:26:48.452Z,11.18
2022-08-26T14:29:16.775Z,6.95
2022-08-26T14:31:44.106Z,6.82
2022-08-26T14:34:12.958Z,7.70
2022-08-26T14:36:39.497Z,6.53
2022-08-26T14:39:09.850Z,6.40
2022-08-26T14:41:56.454Z,5.72
2022-08-26T14:44:29.591Z,6.25
2022-08-26T14:46:56.744Z,5.68
2022-08-26T14:49:25.098Z,9.35
2022-08-26T14:51:51.648Z,15.20
2022-08-26T14:54:19.302Z,7.32
2022-08-26T14:56:55.379Z,5.70
2022-08-26T14:59:26.109Z,6.20
2022-08-26T15:01:54.323Z,6.47
2022-08-26T15:04:21.830Z,8.02
2022-08-26T15:06:49.287Z,9.40
2022-08-26T15:09:16.485Z,7.95
2022-08-26T15:11:43.101Z,8.02
2022-08-26T15:14:14.761Z,9.27
2022-08-26T15:16:50.915Z,6.40
2022-08-26T15:19:18.346Z,6.18
2022-08-26T15:21:45.544Z,9.85
2022-08-26T15:24:12.723Z,8.23
2022-08-26T15:26:39.367Z,7.28
2022-08-26T15:29:06.003Z,6.43
2022-08-26T15:31:33.975Z,5.53
2022-08-26T15:34:04.265Z,6.10
2022-08-26T15:36:32.308Z,4.78
2022-08-26T15:39:00.292Z,5.55
2022-08-26T15:41:27.950Z,6.68
2022-08-26T15:43:54.532Z,4.97
2022-08-26T15:46:21.366Z,5.00
2022-08-26T15:48:48.068Z,10.27
2022-08-26T15:51:22.817Z,4.97
2022-08-26T15:53:49.768Z,4.80
2022-08-26T15:56:17.208Z,9.63
2022-08-26T15:58:44.873Z,6.95
2022-08-26T16:01:11.670Z,4.75
2022-08-26T16:03:38.233Z,7.35
2022-08-26T16:06:05.076Z,10.65
2022-08-26T16:08:36.459Z,6.40
2022-08-26T16:11:04.143Z,3.90
2022-08-26T16:13:39.494Z,4.32
2022-08-26T16:18:33.973Z,8.85
2022-08-26T16:21:13.309Z,6.25
2022-08-26T16:23:40.727Z,3.55
2022-08-26T16:26:22.996Z,5.13
2022-08-26T16:28:49.655Z,5.78
2022-08-26T16:31:16.272Z,3.78
2022-08-26T16:33:43.184Z,3.97
2022-08-26T16:36:10.839Z,3.38
2022-08-26T16:38:38.580Z,5.95
2022-08-26T16:41:05.950Z,5.28
2022-08-26T16:43:32.545Z,3.60
2022-08-26T16:45:59.334Z,3.70
2022-08-26T16:48:27.031Z,3.80
2022-08-26T16:50:55.364Z,5.57
2022-08-26T16:53:22.908Z,5.93
2022-08-26T16:55:50.558Z,5.40
2022-08-26T16:58:17.837Z,5.78
2022-08-26T17:00:45.182Z,4.85
2022-08-26T17:03:11.866Z,7.35
2022-08-26T17:05:38.864Z,3.30
2022-08-26T17:08:05.527Z,2.38
2022-08-26T17:10:33.013Z,2.83
2022-08-26T17:12:59.650Z,8.27
2022-08-26T17:15:26.789Z,2.10
2022-08-26T17:17:54.442Z,2.80
2022-08-26T17:20:24.244Z,2.10
2022-08-26T17:22:52.810Z,4.50
2022-08-26T17:25:29.076Z,3.97
2022-08-26T17:30:27.999Z,4.18
2022-08-26T17:32:57.971Z,5.22
2022-08-26T17:35:24.997Z,2.67
2022-08-26T17:37:52.695Z,5.70
2022-08-26T17:40:21.841Z,4.97
2022-08-26T17:42:48.766Z,6.15
2022-08-26T17:45:16.517Z,8.65
2022-08-26T17:47:44.031Z,3.47
2022-08-26T17:50:14.154Z,4.82
2022-08-26T17:52:42.001Z,7.22
2022-08-26T17:55:10.439Z,3.45
2022-08-26T17:57:40.509Z,6.30
2022-08-26T18:00:17.454Z,7.40
2022-08-26T18:02:44.136Z,6.63
2022-08-26T18:05:14.024Z,5.30
2022-08-26T18:07:43.679Z,5.68
2022-08-26T18:10:13.746Z,3.13
2022-08-26T18:12:41.501Z,10.50
2022-08-26T18:15:09.516Z,4.97
2022-08-26T18:17:36.308Z,6.00
2022-08-26T18:20:03.098Z,4.93
2022-08-26T18:22:30.066Z,11.00
2022-08-26T18:24:58.717Z,5.13
2022-08-26T18:27:25.844Z,6.10
2022-08-26T18:29:52.432Z,5.65
2022-08-26T18:32:18.994Z,3.63
2022-08-26T18:34:45.544Z,7.15
2022-08-26T18:37:14.262Z,8.68
2022-08-26T18:39:41.635Z,7.63
2022-08-26T18:42:08.898Z,4.15
2022-08-26T18:44:35.533Z,5.53
2022-08-26T18:47:02.241Z,6.57
2022-08-26T18:49:29.327Z,4.03
2022-08-26T18:51:55.983Z,5.50
2022-08-26T18:54:22.619Z,6.85
2022-08-26T18:56:49.398Z,2.70
2022-08-26T18:59:16.069Z,2.42
2022-08-26T19:01:43.036Z,6.00
2022-08-26T19:04:14.715Z,2.05
2022-08-26T19:06:43.414Z,4.43
2022-08-26T19:09:12.008Z,5.15
2022-08-26T19:11:42.867Z,3.22
2022-08-26T19:14:15.905Z,4.32
2022-08-26T19:16:45.659Z,2.80
2022-08-26T19:19:13.679Z,7.03
2022-08-26T19:21:40.830Z,1.38
2022-08-26T19:24:17.413Z,4.35
2022-08-26T19:26:46.693Z,4.68
2022-08-26T19:29:13.778Z,2.60
2022-08-26T19:31:42.111Z,4.00
2022-08-26T19:34:11.259Z,4.53
2022-08-26T19:36:38.272Z,3.47
2022-08-26T19:39:09.660Z,3.97
2022-08-26T19:41:38.740Z,6.18
2022-08-26T19:44:10.402Z,3.42
2022-08-26T19:49:05.256Z,5.65
2022-08-26T19:51:33.920Z,1.42
2022-08-26T19:54:01.569Z,6.03
2022-08-26T19:56:28.815Z,4.68
2022-08-26T19:58:56.621Z,6.53
2022-08-26T20:01:23.454Z,3.90
2022-08-26T20:03:50.441Z,6.43
2022-08-26T20:06:17.103Z,5.13
2022-08-26T20:08:44.778Z,3.70
2022-08-26T20:11:14.620Z,3.88
2022-08-26T20:13:42.504Z,8.80
2022-08-26T20:16:11.792Z,6.13
2022-08-26T20:19:00.806Z,3.80
2022-08-26T20:21:34.121Z,3.95
2022-08-26T20:24:03.978Z,3.47
2022-08-26T20:26:33.162Z,5.05
2022-08-26T20:28:59.767Z,3.90
2022-08-26T20:31:26.750Z,12.18
2022-08-26T20:33:54.231Z,5.80
2022-08-26T20:36:23.051Z,6.68
2022-08-26T20:38:50.250Z,3.95
2022-08-26T20:41:17.838Z,3.65
2022-08-26T20:43:46.091Z,4.18
2022-08-26T20:46:16.910Z,4.47
2022-08-26T20:48:45.677Z,4.10
2022-08-26T20:51:12.385Z,5.75
2022-08-26T20:53:38.982Z,4.95
2022-08-26T20:56:08.941Z,3.42
2022-08-26T20:58:36.045Z,8.65
2022-08-26T21:01:07.355Z,7.20
2022-08-26T21:03:35.922Z,6.70
2022-08-26T21:06:03.609Z,2.42
2022-08-26T21:08:30.797Z,5.18
2022-08-26T21:11:00.442Z,6.53
2022-08-26T21:13:27.067Z,4.90
2022-08-26T21:15:57.571Z,3.90
2022-08-26T21:18:24.305Z,2.08
2022-08-26T21:20:51.592Z,4.97
2022-08-26T21:23:18.689Z,6.88
2022-08-26T21:25:46.479Z,4.90
2022-08-26T21:28:13.281Z,3.63
2022-08-26T21:30:40.897Z,5.07
2022-08-26T21:33:08.438Z,6.32
2022-08-26T21:35:35.707Z,2.92
2022-08-26T21:38:02.281Z,2.60
2022-08-26T21:40:28.996Z,4.82
2022-08-26T21:42:55.612Z,7.55
2022-08-26T21:45:22.208Z,3.30
2022-08-26T21:47:48.787Z,8.07
2022-08-26T21:50:15.467Z,3.47
2022-08-26T21:52:42.013Z,3.75
2022-08-26T21:55:11.709Z,3.60
2022-08-26T21:57:38.607Z,3.90
2022-08-26T22:00:09.010Z,6.00
2022-08-26T22:02:36.919Z,4.50
2022-08-26T22:05:04.283Z,4.68
2022-08-26T22:07:31.068Z,5.15
2022-08-26T22:09:57.835Z,6.63
2022-08-26T22:12:24.654Z,9.32
2022-08-26T22:14:51.272Z,5.78
2022-08-26T22:17:17.948Z,12.38
2022-08-26T22:19:46.365Z,8.60
2022-08-26T22:22:14.843Z,5.28
2022-08-26T22:24:43.289Z,10.30
2022-08-26T22:27:11.919Z,15.93
2022-08-26T22:29:38.677Z,21.02
2022-08-26T22:32:05.458Z,20.77
2022-08-26T22:34:32.145Z,25.77
2022-08-26T22:36:59.504Z,27.67
2022-08-26T22:39:26.629Z,29.80
2022-08-26T22:41:53.922Z,27.23
2022-08-26T22:44:22.150Z,28.80
2022-08-26T22:46:50.763Z,28.42
2022-08-26T22:49:17.478Z,26.00
2022-08-26T22:51:45.304Z,25.25
2022-08-26T22:54:12.552Z,19.38
2022-08-26T22:56:40.035Z,20.77
2022-08-26T22:59:07.989Z,22.50
2022-08-26T23:01:36.939Z,22.33
2022-08-26T23:04:05.256Z,20.35
2022-08-26T23:06:33.967Z,20.42
2022-08-26T23:09:00.511Z,24.83
2022-08-26T23:11:27.038Z,25.48
2022-08-26T23:13:53.634Z,27.85
2022-08-26T23:16:21.080Z,24.95
2022-08-26T23:18:47.786Z,25.67
2022-08-26T23:21:14.358Z,22.58
2022-08-26T23:23:41.355Z,19.90
2022-08-26T23:26:08.200Z,17.08
2022-08-26T23:28:39.564Z,17.60
2022-08-26T23:31:07.361Z,21.92
2022-08-26T23:33:52.616Z,16.42
2022-08-26T23:36:22.717Z,18.77
2022-08-26T23:38:52.953Z,23.48
2022-08-26T23:41:23.160Z,21.77
2022-08-26T23:43:50.571Z,25.40
2022-08-26T23:46:18.432Z,21.10
2022-08-26T23:48:45.015Z,20.95
2022-08-26T23:51:30.621Z,26.08
2022-08-26T23:53:57.891Z,27.80
2022-08-26T23:56:25.005Z,27.58
2022-08-26T23:58:54.026Z,29.08
